Overview Statistics Trail Chart Weather Telemetry Raw packets
 

This is the latest recevied weather packets stored in our database for station/object SQ4IXR-4. If no packets are shown the sender has not sent any weather packets the latest 10 day(s).

<< 8 9 10 11 12 13 14 >>
Time Temp. Humidity Pressure Rain* Wind** Luminosity Snow
1788455499 20° C 51% 1018.2 hPa - - - -
1788454674 20.56° C 49% 1018.2 hPa - - - -
1788453852 20.56° C 47% 1018.2 hPa - - - -
1788453030 21.11° C 44% 1018.2 hPa - - - -
1788452207 21.67° C 43% 1018.2 hPa - - - -
1788451385 22.22° C 43% 1018.2 hPa - - - -
1788450563 22.78° C 43% 1018.4 hPa - - - -
1788449741 23.33° C 41% 1018.3 hPa - - - -
1788448918 23.89° C 40% 1018.3 hPa - - - -
1788448096 23.89° C 41% 1018.4 hPa - - - -
1788447275 25° C 38% 1018.4 hPa - - - -
1788446453 26.11° C 35% 1018.3 hPa - - - -
1788445630 25.56° C 37% 1018.4 hPa - - - -
1788444803 25.56° C 38% 1018.6 hPa - - - -
1788443981 25° C 37% 1018.8 hPa - - - -
1788443160 26.11° C 35% 1018.7 hPa - - - -
1788442340 26.67° C 34% 1018.7 hPa - - - -
1788441516 27.78° C 34% 1018.7 hPa - - - -
1788440705 32.22° C 26% 1018.5 hPa - - - -
1788439879 41.11° C 18% 1018.1 hPa - - - -
1788439040 26.67° C 36% 1019.3 hPa - - - -
1788438222 27.78° C 33% 1019.2 hPa - - - -
1788437398 31.67° C 28% 1018.9 hPa - - - -
1788436567 27.78° C 34% 1019.2 hPa - - - -
1788435744 26.67° C 35% 1019.6 hPa - - - -

* Rain since midnight (hover to see other rain measurements)
** Current wind speed in m/s (hover to see current wind gust speed)